sensor_id;sensor_type;location;lat;lon;timestamp;P1;durP1;ratioP1;P2;durP2;ratioP2
16272;SDS011;8244;50.044;9.006;2023-11-19T00:03:38;10.70;;;5.50;;
16272;SDS011;8244;50.044;9.006;2023-11-19T00:08:40;9.52;;;5.63;;
16272;SDS011;8244;50.044;9.006;2023-11-19T00:13:43;11.88;;;6.05;;
16272;SDS011;8244;50.044;9.006;2023-11-19T00:18:46;10.10;;;5.20;;
16272;SDS011;8244;50.044;9.006;2023-11-19T00:23:49;9.63;;;4.95;;
16272;SDS011;8244;50.044;9.006;2023-11-19T00:28:52;7.30;;;4.78;;
16272;SDS011;8244;50.044;9.006;2023-11-19T00:33:57;8.50;;;5.20;;
16272;SDS011;8244;50.044;9.006;2023-11-19T00:38:59;7.55;;;4.38;;
16272;SDS011;8244;50.044;9.006;2023-11-19T00:44:00;7.53;;;4.75;;
16272;SDS011;8244;50.044;9.006;2023-11-19T00:49:03;8.77;;;4.85;;
16272;SDS011;8244;50.044;9.006;2023-11-19T00:54:05;9.45;;;5.03;;
16272;SDS011;8244;50.044;9.006;2023-11-19T00:59:07;6.95;;;4.63;;
16272;SDS011;8244;50.044;9.006;2023-11-19T01:04:10;8.85;;;4.38;;
16272;SDS011;8244;50.044;9.006;2023-11-19T01:09:12;7.78;;;4.22;;
16272;SDS011;8244;50.044;9.006;2023-11-19T01:14:13;6.05;;;4.13;;
16272;SDS011;8244;50.044;9.006;2023-11-19T01:19:16;8.40;;;4.70;;
16272;SDS011;8244;50.044;9.006;2023-11-19T01:24:18;5.68;;;4.00;;
16272;SDS011;8244;50.044;9.006;2023-11-19T01:29:19;12.30;;;4.70;;
16272;SDS011;8244;50.044;9.006;2023-11-19T01:34:22;6.28;;;4.30;;
16272;SDS011;8244;50.044;9.006;2023-11-19T01:39:24;6.65;;;3.60;;
16272;SDS011;8244;50.044;9.006;2023-11-19T01:44:26;6.18;;;3.75;;
16272;SDS011;8244;50.044;9.006;2023-11-19T01:49:28;7.60;;;4.18;;
16272;SDS011;8244;50.044;9.006;2023-11-19T01:54:33;6.57;;;3.13;;
16272;SDS011;8244;50.044;9.006;2023-11-19T01:59:34;3.83;;;3.05;;
16272;SDS011;8244;50.044;9.006;2023-11-19T02:04:38;4.18;;;3.00;;
16272;SDS011;8244;50.044;9.006;2023-11-19T02:09:41;3.60;;;2.88;;
16272;SDS011;8244;50.044;9.006;2023-11-19T02:14:43;5.95;;;3.40;;
16272;SDS011;8244;50.044;9.006;2023-11-19T02:19:46;5.40;;;3.17;;
16272;SDS011;8244;50.044;9.006;2023-11-19T02:24:48;5.03;;;2.97;;
16272;SDS011;8244;50.044;9.006;2023-11-19T02:29:53;5.93;;;3.35;;
16272;SDS011;8244;50.044;9.006;2023-11-19T02:34:55;4.82;;;2.83;;
16272;SDS011;8244;50.044;9.006;2023-11-19T02:39:57;3.30;;;2.70;;
16272;SDS011;8244;50.044;9.006;2023-11-19T02:45:05;4.22;;;2.67;;
16272;SDS011;8244;50.044;9.006;2023-11-19T02:50:07;5.93;;;2.30;;
16272;SDS011;8244;50.044;9.006;2023-11-19T02:55:14;3.05;;;2.25;;
16272;SDS011;8244;50.044;9.006;2023-11-19T03:00:20;3.70;;;2.25;;
16272;SDS011;8244;50.044;9.006;2023-11-19T03:05:25;2.47;;;1.80;;
16272;SDS011;8244;50.044;9.006;2023-11-19T03:10:30;2.00;;;1.52;;
16272;SDS011;8244;50.044;9.006;2023-11-19T03:15:33;2.15;;;1.50;;
16272;SDS011;8244;50.044;9.006;2023-11-19T03:20:35;2.83;;;1.42;;
16272;SDS011;8244;50.044;9.006;2023-11-19T03:25:36;1.30;;;1.13;;
16272;SDS011;8244;50.044;9.006;2023-11-19T03:30:39;1.25;;;1.00;;
16272;SDS011;8244;50.044;9.006;2023-11-19T03:35:41;1.15;;;0.82;;
16272;SDS011;8244;50.044;9.006;2023-11-19T03:40:43;3.85;;;1.10;;
16272;SDS011;8244;50.044;9.006;2023-11-19T03:45:46;0.90;;;0.90;;
16272;SDS011;8244;50.044;9.006;2023-11-19T03:50:48;0.75;;;0.75;;
16272;SDS011;8244;50.044;9.006;2023-11-19T03:55:49;0.90;;;0.90;;
16272;SDS011;8244;50.044;9.006;2023-11-19T04:00:53;0.85;;;0.85;;
16272;SDS011;8244;50.044;9.006;2023-11-19T04:05:55;2.53;;;1.00;;
16272;SDS011;8244;50.044;9.006;2023-11-19T04:10:56;1.85;;;1.30;;
16272;SDS011;8244;50.044;9.006;2023-11-19T04:15:59;1.10;;;0.98;;
16272;SDS011;8244;50.044;9.006;2023-11-19T04:21:01;5.13;;;2.40;;
16272;SDS011;8244;50.044;9.006;2023-11-19T04:26:06;1.98;;;1.27;;
16272;SDS011;8244;50.044;9.006;2023-11-19T04:31:09;0.90;;;0.90;;
16272;SDS011;8244;50.044;9.006;2023-11-19T04:36:11;0.88;;;0.88;;
16272;SDS011;8244;50.044;9.006;2023-11-19T04:41:14;0.90;;;0.90;;
16272;SDS011;8244;50.044;9.006;2023-11-19T04:46:17;3.92;;;1.10;;
16272;SDS011;8244;50.044;9.006;2023-11-19T04:51:19;1.35;;;1.10;;
16272;SDS011;8244;50.044;9.006;2023-11-19T04:56:21;5.80;;;1.00;;
16272;SDS011;8244;50.044;9.006;2023-11-19T05:01:24;2.15;;;0.95;;
16272;SDS011;8244;50.044;9.006;2023-11-19T05:06:26;0.90;;;0.80;;
16272;SDS011;8244;50.044;9.006;2023-11-19T05:11:29;1.00;;;0.90;;
16272;SDS011;8244;50.044;9.006;2023-11-19T05:16:32;2.15;;;1.00;;
16272;SDS011;8244;50.044;9.006;2023-11-19T05:21:35;1.00;;;1.00;;
16272;SDS011;8244;50.044;9.006;2023-11-19T05:26:36;1.15;;;1.05;;
16272;SDS011;8244;50.044;9.006;2023-11-19T05:31:40;1.67;;;1.00;;
16272;SDS011;8244;50.044;9.006;2023-11-19T05:36:42;1.95;;;1.17;;
16272;SDS011;8244;50.044;9.006;2023-11-19T05:41:43;1.73;;;1.40;;
16272;SDS011;8244;50.044;9.006;2023-11-19T05:46:46;1.42;;;1.33;;
16272;SDS011;8244;50.044;9.006;2023-11-19T05:51:48;3.33;;;1.40;;
16272;SDS011;8244;50.044;9.006;2023-11-19T05:56:51;1.45;;;1.35;;
16272;SDS011;8244;50.044;9.006;2023-11-19T06:01:55;4.40;;;1.70;;
16272;SDS011;8244;50.044;9.006;2023-11-19T06:06:58;6.20;;;3.42;;
16272;SDS011;8244;50.044;9.006;2023-11-19T06:12:00;2.97;;;1.92;;
16272;SDS011;8244;50.044;9.006;2023-11-19T06:17:03;3.38;;;1.98;;
16272;SDS011;8244;50.044;9.006;2023-11-19T06:22:05;2.47;;;1.98;;
16272;SDS011;8244;50.044;9.006;2023-11-19T06:27:07;3.05;;;1.88;;
16272;SDS011;8244;50.044;9.006;2023-11-19T06:32:10;2.10;;;1.90;;
16272;SDS011;8244;50.044;9.006;2023-11-19T06:37:12;3.45;;;1.98;;
16272;SDS011;8244;50.044;9.006;2023-11-19T06:42:14;3.10;;;1.98;;
16272;SDS011;8244;50.044;9.006;2023-11-19T06:47:17;3.05;;;2.30;;
16272;SDS011;8244;50.044;9.006;2023-11-19T06:52:18;2.95;;;2.40;;
16272;SDS011;8244;50.044;9.006;2023-11-19T06:57:20;4.10;;;2.25;;
16272;SDS011;8244;50.044;9.006;2023-11-19T07:02:25;3.13;;;2.30;;
16272;SDS011;8244;50.044;9.006;2023-11-19T07:07:26;2.38;;;2.03;;
16272;SDS011;8244;50.044;9.006;2023-11-19T07:12:28;3.00;;;2.63;;
16272;SDS011;8244;50.044;9.006;2023-11-19T07:17:31;2.08;;;1.80;;
16272;SDS011;8244;50.044;9.006;2023-11-19T07:22:33;3.40;;;1.90;;
16272;SDS011;8244;50.044;9.006;2023-11-19T07:27:35;2.30;;;1.80;;
16272;SDS011;8244;50.044;9.006;2023-11-19T07:32:38;2.03;;;1.88;;
16272;SDS011;8244;50.044;9.006;2023-11-19T07:37:39;2.65;;;1.40;;
16272;SDS011;8244;50.044;9.006;2023-11-19T07:42:42;2.20;;;1.63;;
16272;SDS011;8244;50.044;9.006;2023-11-19T07:47:45;5.05;;;2.80;;
16272;SDS011;8244;50.044;9.006;2023-11-19T07:52:46;5.03;;;3.20;;
16272;SDS011;8244;50.044;9.006;2023-11-19T07:57:48;2.83;;;2.17;;
16272;SDS011;8244;50.044;9.006;2023-11-19T08:02:51;2.67;;;1.90;;
16272;SDS011;8244;50.044;9.006;2023-11-19T08:07:53;4.90;;;2.10;;
16272;SDS011;8244;50.044;9.006;2023-11-19T08:12:54;2.15;;;1.92;;
16272;SDS011;8244;50.044;9.006;2023-11-19T08:17:57;2.30;;;1.95;;
16272;SDS011;8244;50.044;9.006;2023-11-19T08:22:59;4.38;;;1.90;;
16272;SDS011;8244;50.044;9.006;2023-11-19T08:28:03;1.92;;;1.77;;
16272;SDS011;8244;50.044;9.006;2023-11-19T08:33:06;4.00;;;2.38;;
16272;SDS011;8244;50.044;9.006;2023-11-19T08:38:08;5.80;;;3.05;;
16272;SDS011;8244;50.044;9.006;2023-11-19T08:43:10;4.72;;;1.88;;
16272;SDS011;8244;50.044;9.006;2023-11-19T08:48:13;2.22;;;1.90;;
16272;SDS011;8244;50.044;9.006;2023-11-19T08:53:14;4.20;;;2.50;;
16272;SDS011;8244;50.044;9.006;2023-11-19T08:58:16;4.00;;;2.47;;
16272;SDS011;8244;50.044;9.006;2023-11-19T09:03:20;3.67;;;2.20;;
16272;SDS011;8244;50.044;9.006;2023-11-19T09:08:21;4.15;;;2.10;;
16272;SDS011;8244;50.044;9.006;2023-11-19T09:13:24;14.88;;;8.77;;
16272;SDS011;8244;50.044;9.006;2023-11-19T09:18:27;4.05;;;2.10;;
16272;SDS011;8244;50.044;9.006;2023-11-19T09:23:28;5.18;;;2.47;;
16272;SDS011;8244;50.044;9.006;2023-11-19T09:28:32;4.18;;;1.70;;
16272;SDS011;8244;50.044;9.006;2023-11-19T09:33:35;5.15;;;1.85;;
16272;SDS011;8244;50.044;9.006;2023-11-19T09:38:38;3.58;;;1.80;;
16272;SDS011;8244;50.044;9.006;2023-11-19T09:43:39;11.20;;;1.88;;
16272;SDS011;8244;50.044;9.006;2023-11-19T09:48:43;2.38;;;1.50;;
16272;SDS011;8244;50.044;9.006;2023-11-19T09:53:48;3.30;;;1.40;;
16272;SDS011;8244;50.044;9.006;2023-11-19T09:58:50;5.75;;;2.00;;
16272;SDS011;8244;50.044;9.006;2023-11-19T10:03:54;5.80;;;2.22;;
16272;SDS011;8244;50.044;9.006;2023-11-19T10:08:57;7.97;;;2.00;;
16272;SDS011;8244;50.044;9.006;2023-11-19T10:13:59;5.10;;;1.80;;
16272;SDS011;8244;50.044;9.006;2023-11-19T10:19:03;7.18;;;2.05;;
16272;SDS011;8244;50.044;9.006;2023-11-19T10:24:05;6.53;;;2.15;;
16272;SDS011;8244;50.044;9.006;2023-11-19T10:29:06;5.07;;;1.60;;
16272;SDS011;8244;50.044;9.006;2023-11-19T10:34:23;5.38;;;1.50;;
16272;SDS011;8244;50.044;9.006;2023-11-19T10:39:29;3.72;;;1.85;;
16272;SDS011;8244;50.044;9.006;2023-11-19T10:44:55;6.95;;;2.03;;
16272;SDS011;8244;50.044;9.006;2023-11-19T10:49:58;6.10;;;1.73;;
16272;SDS011;8244;50.044;9.006;2023-11-19T10:55:00;11.13;;;3.28;;
16272;SDS011;8244;50.044;9.006;2023-11-19T11:00:05;8.25;;;2.28;;
16272;SDS011;8244;50.044;9.006;2023-11-19T11:05:14;10.38;;;2.67;;
16272;SDS011;8244;50.044;9.006;2023-11-19T11:10:17;10.10;;;2.38;;
16272;SDS011;8244;50.044;9.006;2023-11-19T11:15:22;8.23;;;2.47;;
16272;SDS011;8244;50.044;9.006;2023-11-19T11:20:26;10.60;;;2.40;;
16272;SDS011;8244;50.044;9.006;2023-11-19T11:25:32;10.45;;;2.10;;
16272;SDS011;8244;50.044;9.006;2023-11-19T11:30:46;6.68;;;2.08;;
16272;SDS011;8244;50.044;9.006;2023-11-19T11:36:06;10.13;;;2.20;;
16272;SDS011;8244;50.044;9.006;2023-11-19T11:41:15;8.68;;;2.90;;
16272;SDS011;8244;50.044;9.006;2023-11-19T11:51:58;10.95;;;2.15;;
16272;SDS011;8244;50.044;9.006;2023-11-19T11:57:02;8.10;;;2.33;;
16272;SDS011;8244;50.044;9.006;2023-11-19T12:02:04;5.72;;;1.60;;
16272;SDS011;8244;50.044;9.006;2023-11-19T12:07:13;8.38;;;2.03;;
16272;SDS011;8244;50.044;9.006;2023-11-19T12:12:21;7.57;;;2.10;;
16272;SDS011;8244;50.044;9.006;2023-11-19T12:22:53;7.22;;;1.80;;
16272;SDS011;8244;50.044;9.006;2023-11-19T12:27:55;7.97;;;1.77;;
16272;SDS011;8244;50.044;9.006;2023-11-19T12:32:56;7.40;;;2.08;;
16272;SDS011;8244;50.044;9.006;2023-11-19T12:38:00;13.00;;;2.47;;
16272;SDS011;8244;50.044;9.006;2023-11-19T12:43:02;7.15;;;2.05;;
16272;SDS011;8244;50.044;9.006;2023-11-19T12:48:04;6.03;;;1.60;;
16272;SDS011;8244;50.044;9.006;2023-11-19T12:53:07;8.60;;;2.35;;
16272;SDS011;8244;50.044;9.006;2023-11-19T12:58:08;6.30;;;1.90;;
16272;SDS011;8244;50.044;9.006;2023-11-19T13:03:10;11.82;;;3.42;;
16272;SDS011;8244;50.044;9.006;2023-11-19T13:08:13;9.00;;;1.88;;
16272;SDS011;8244;50.044;9.006;2023-11-19T13:13:15;7.93;;;2.28;;
16272;SDS011;8244;50.044;9.006;2023-11-19T13:18:17;6.97;;;1.95;;
16272;SDS011;8244;50.044;9.006;2023-11-19T13:23:20;9.43;;;2.00;;
16272;SDS011;8244;50.044;9.006;2023-11-19T13:28:22;7.88;;;2.20;;
16272;SDS011;8244;50.044;9.006;2023-11-19T13:33:23;8.65;;;2.38;;
16272;SDS011;8244;50.044;9.006;2023-11-19T13:38:27;10.57;;;2.22;;
16272;SDS011;8244;50.044;9.006;2023-11-19T13:43:29;8.48;;;2.45;;
16272;SDS011;8244;50.044;9.006;2023-11-19T13:48:31;7.43;;;1.92;;
16272;SDS011;8244;50.044;9.006;2023-11-19T13:53:34;8.57;;;2.05;;
16272;SDS011;8244;50.044;9.006;2023-11-19T13:58:37;13.07;;;2.95;;
16272;SDS011;8244;50.044;9.006;2023-11-19T14:03:40;11.20;;;2.55;;
16272;SDS011;8244;50.044;9.006;2023-11-19T14:08:44;7.45;;;1.98;;
16272;SDS011;8244;50.044;9.006;2023-11-19T14:13:46;7.95;;;2.13;;
16272;SDS011;8244;50.044;9.006;2023-11-19T14:18:49;6.90;;;1.95;;
16272;SDS011;8244;50.044;9.006;2023-11-19T14:23:52;10.07;;;2.17;;
16272;SDS011;8244;50.044;9.006;2023-11-19T14:28:54;9.77;;;2.78;;
16272;SDS011;8244;50.044;9.006;2023-11-19T14:33:55;8.13;;;2.05;;
16272;SDS011;8244;50.044;9.006;2023-11-19T14:38:58;6.72;;;2.58;;
16272;SDS011;8244;50.044;9.006;2023-11-19T14:44:00;9.88;;;2.45;;
16272;SDS011;8244;50.044;9.006;2023-11-19T14:49:03;12.98;;;4.20;;
16272;SDS011;8244;50.044;9.006;2023-11-19T14:54:06;9.75;;;2.75;;
16272;SDS011;8244;50.044;9.006;2023-11-19T14:59:08;13.45;;;3.72;;
16272;SDS011;8244;50.044;9.006;2023-11-19T15:04:10;12.77;;;3.35;;
16272;SDS011;8244;50.044;9.006;2023-11-19T15:09:13;15.07;;;4.00;;
16272;SDS011;8244;50.044;9.006;2023-11-19T15:14:17;14.68;;;4.82;;
16272;SDS011;8244;50.044;9.006;2023-11-19T15:19:19;14.18;;;4.40;;
16272;SDS011;8244;50.044;9.006;2023-11-19T15:24:22;10.07;;;3.13;;
16272;SDS011;8244;50.044;9.006;2023-11-19T15:29:25;14.73;;;3.08;;
16272;SDS011;8244;50.044;9.006;2023-11-19T15:34:27;15.20;;;3.95;;
16272;SDS011;8244;50.044;9.006;2023-11-19T15:39:30;12.82;;;3.78;;
16272;SDS011;8244;50.044;9.006;2023-11-19T15:44:32;13.55;;;3.83;;
16272;SDS011;8244;50.044;9.006;2023-11-19T15:49:34;18.13;;;4.82;;
16272;SDS011;8244;50.044;9.006;2023-11-19T15:54:38;10.63;;;2.70;;
16272;SDS011;8244;50.044;9.006;2023-11-19T15:59:40;11.32;;;2.75;;
16272;SDS011;8244;50.044;9.006;2023-11-19T16:04:42;8.68;;;2.78;;
16272;SDS011;8244;50.044;9.006;2023-11-19T16:09:49;11.43;;;3.42;;
16272;SDS011;8244;50.044;9.006;2023-11-19T16:14:52;8.95;;;2.22;;
16272;SDS011;8244;50.044;9.006;2023-11-19T16:19:54;12.30;;;2.85;;
16272;SDS011;8244;50.044;9.006;2023-11-19T16:24:57;11.77;;;4.55;;
16272;SDS011;8244;50.044;9.006;2023-11-19T16:29:58;6.63;;;2.17;;
16272;SDS011;8244;50.044;9.006;2023-11-19T16:35:01;9.07;;;2.53;;
16272;SDS011;8244;50.044;9.006;2023-11-19T16:40:05;11.02;;;4.00;;
16272;SDS011;8244;50.044;9.006;2023-11-19T16:45:11;14.15;;;4.32;;
16272;SDS011;8244;50.044;9.006;2023-11-19T16:50:14;19.02;;;7.25;;
16272;SDS011;8244;50.044;9.006;2023-11-19T16:55:17;12.60;;;4.70;;
16272;SDS011;8244;50.044;9.006;2023-11-19T17:00:19;13.95;;;4.28;;
16272;SDS011;8244;50.044;9.006;2023-11-19T17:05:21;13.20;;;5.22;;
16272;SDS011;8244;50.044;9.006;2023-11-19T17:10:25;15.10;;;4.10;;
16272;SDS011;8244;50.044;9.006;2023-11-19T17:15:27;11.80;;;2.92;;
16272;SDS011;8244;50.044;9.006;2023-11-19T17:20:28;9.23;;;2.28;;
16272;SDS011;8244;50.044;9.006;2023-11-19T17:25:31;9.88;;;2.55;;
16272;SDS011;8244;50.044;9.006;2023-11-19T17:30:33;8.10;;;2.30;;
16272;SDS011;8244;50.044;9.006;2023-11-19T17:35:35;10.57;;;2.97;;
16272;SDS011;8244;50.044;9.006;2023-11-19T17:40:39;12.13;;;2.75;;
16272;SDS011;8244;50.044;9.006;2023-11-19T17:45:40;10.40;;;2.42;;
16272;SDS011;8244;50.044;9.006;2023-11-19T17:50:42;7.82;;;2.50;;
16272;SDS011;8244;50.044;9.006;2023-11-19T17:55:45;10.27;;;2.50;;
16272;SDS011;8244;50.044;9.006;2023-11-19T18:00:47;12.93;;;4.28;;
16272;SDS011;8244;50.044;9.006;2023-11-19T18:05:48;10.05;;;2.45;;
16272;SDS011;8244;50.044;9.006;2023-11-19T18:10:52;13.15;;;2.72;;
16272;SDS011;8244;50.044;9.006;2023-11-19T18:15:54;8.52;;;2.40;;
16272;SDS011;8244;50.044;9.006;2023-11-19T18:20:56;12.75;;;3.85;;
16272;SDS011;8244;50.044;9.006;2023-11-19T18:25:59;12.40;;;2.90;;
16272;SDS011;8244;50.044;9.006;2023-11-19T18:31:01;9.77;;;2.63;;
16272;SDS011;8244;50.044;9.006;2023-11-19T18:36:04;7.88;;;3.08;;
16272;SDS011;8244;50.044;9.006;2023-11-19T18:41:08;13.10;;;4.55;;
16272;SDS011;8244;50.044;9.006;2023-11-19T18:46:09;11.98;;;3.45;;
16272;SDS011;8244;50.044;9.006;2023-11-19T18:51:12;12.35;;;3.38;;
16272;SDS011;8244;50.044;9.006;2023-11-19T18:56:18;11.68;;;3.28;;
16272;SDS011;8244;50.044;9.006;2023-11-19T19:01:20;15.00;;;3.13;;
16272;SDS011;8244;50.044;9.006;2023-11-19T19:06:24;14.05;;;3.17;;
16272;SDS011;8244;50.044;9.006;2023-11-19T19:11:27;13.70;;;3.20;;
16272;SDS011;8244;50.044;9.006;2023-11-19T19:16:29;13.98;;;3.83;;
16272;SDS011;8244;50.044;9.006;2023-11-19T19:21:31;16.08;;;3.13;;
16272;SDS011;8244;50.044;9.006;2023-11-19T19:26:34;10.88;;;2.58;;
16272;SDS011;8244;50.044;9.006;2023-11-19T19:31:36;16.55;;;3.65;;
16272;SDS011;8244;50.044;9.006;2023-11-19T19:36:38;12.05;;;2.95;;
16272;SDS011;8244;50.044;9.006;2023-11-19T19:41:41;13.40;;;2.63;;
16272;SDS011;8244;50.044;9.006;2023-11-19T19:46:44;13.68;;;3.10;;
16272;SDS011;8244;50.044;9.006;2023-11-19T19:51:46;18.13;;;4.18;;
16272;SDS011;8244;50.044;9.006;2023-11-19T19:56:49;11.43;;;3.17;;
16272;SDS011;8244;50.044;9.006;2023-11-19T20:01:52;11.02;;;2.60;;
16272;SDS011;8244;50.044;9.006;2023-11-19T20:06:54;17.02;;;2.97;;
16272;SDS011;8244;50.044;9.006;2023-11-19T20:11:58;12.43;;;2.70;;
16272;SDS011;8244;50.044;9.006;2023-11-19T20:16:59;16.95;;;3.53;;
16272;SDS011;8244;50.044;9.006;2023-11-19T20:22:01;14.65;;;2.88;;
16272;SDS011;8244;50.044;9.006;2023-11-19T20:27:04;14.35;;;4.20;;
16272;SDS011;8244;50.044;9.006;2023-11-19T20:32:07;16.70;;;6.38;;
16272;SDS011;8244;50.044;9.006;2023-11-19T20:37:10;14.18;;;3.10;;
16272;SDS011;8244;50.044;9.006;2023-11-19T20:42:13;11.10;;;2.83;;
16272;SDS011;8244;50.044;9.006;2023-11-19T20:47:15;13.02;;;2.88;;
16272;SDS011;8244;50.044;9.006;2023-11-19T20:52:16;12.98;;;2.88;;
16272;SDS011;8244;50.044;9.006;2023-11-19T20:57:19;13.48;;;2.75;;
16272;SDS011;8244;50.044;9.006;2023-11-19T21:02:21;12.95;;;2.55;;
16272;SDS011;8244;50.044;9.006;2023-11-19T21:07:23;18.88;;;3.22;;
16272;SDS011;8244;50.044;9.006;2023-11-19T21:12:27;14.88;;;2.83;;
16272;SDS011;8244;50.044;9.006;2023-11-19T21:17:28;12.77;;;2.83;;
16272;SDS011;8244;50.044;9.006;2023-11-19T21:22:31;12.65;;;2.70;;
16272;SDS011;8244;50.044;9.006;2023-11-19T21:27:34;14.80;;;2.90;;
16272;SDS011;8244;50.044;9.006;2023-11-19T21:32:36;16.17;;;3.13;;
16272;SDS011;8244;50.044;9.006;2023-11-19T21:37:37;17.63;;;3.53;;
16272;SDS011;8244;50.044;9.006;2023-11-19T21:42:40;14.05;;;2.85;;
16272;SDS011;8244;50.044;9.006;2023-11-19T21:47:42;15.90;;;3.47;;
16272;SDS011;8244;50.044;9.006;2023-11-19T21:52:44;17.05;;;2.88;;
16272;SDS011;8244;50.044;9.006;2023-11-19T21:57:47;13.00;;;2.63;;
16272;SDS011;8244;50.044;9.006;2023-11-19T22:02:50;16.38;;;3.63;;
16272;SDS011;8244;50.044;9.006;2023-11-19T22:07:51;13.95;;;3.15;;
16272;SDS011;8244;50.044;9.006;2023-11-19T22:12:55;15.43;;;2.90;;
16272;SDS011;8244;50.044;9.006;2023-11-19T22:17:57;17.98;;;3.53;;
16272;SDS011;8244;50.044;9.006;2023-11-19T22:22:58;14.27;;;3.35;;
16272;SDS011;8244;50.044;9.006;2023-11-19T22:28:01;13.65;;;2.95;;
16272;SDS011;8244;50.044;9.006;2023-11-19T22:33:03;13.40;;;2.65;;
16272;SDS011;8244;50.044;9.006;2023-11-19T22:38:07;16.02;;;3.20;;
16272;SDS011;8244;50.044;9.006;2023-11-19T22:43:10;11.77;;;3.08;;
16272;SDS011;8244;50.044;9.006;2023-11-19T22:48:12;15.82;;;2.78;;
16272;SDS011;8244;50.044;9.006;2023-11-19T22:53:13;18.83;;;3.10;;
16272;SDS011;8244;50.044;9.006;2023-11-19T22:58:17;16.08;;;2.58;;
16272;SDS011;8244;50.044;9.006;2023-11-19T23:03:19;15.38;;;2.95;;
16272;SDS011;8244;50.044;9.006;2023-11-19T23:08:21;16.83;;;3.08;;
16272;SDS011;8244;50.044;9.006;2023-11-19T23:13:24;17.00;;;2.95;;
16272;SDS011;8244;50.044;9.006;2023-11-19T23:18:25;15.90;;;2.85;;
16272;SDS011;8244;50.044;9.006;2023-11-19T23:23:27;18.50;;;3.88;;
16272;SDS011;8244;50.044;9.006;2023-11-19T23:28:31;15.43;;;2.90;;
16272;SDS011;8244;50.044;9.006;2023-11-19T23:33:32;14.70;;;3.35;;
16272;SDS011;8244;50.044;9.006;2023-11-19T23:38:35;12.48;;;2.55;;
16272;SDS011;8244;50.044;9.006;2023-11-19T23:43:38;14.52;;;2.92;;
16272;SDS011;8244;50.044;9.006;2023-11-19T23:48:39;17.20;;;2.78;;
16272;SDS011;8244;50.044;9.006;2023-11-19T23:53:41;11.73;;;2.45;;
16272;SDS011;8244;50.044;9.006;2023-11-19T23:58:44;13.13;;;3.05;;
